sensor_id;sensor_type;location;lat;lon;timestamp;pressure;altitude;pressure_sealevel;temperature;humidity
50226;BME280;36113;50.742;6.432;2023-03-18T00:01:24;112741.81;;;-145.50;79.66
50226;BME280;36113;50.742;6.432;2023-03-18T00:03:50;112741.81;;;-145.50;79.70
50226;BME280;36113;50.742;6.432;2023-03-18T00:06:17;112741.81;;;-145.50;79.55
50226;BME280;36113;50.742;6.432;2023-03-18T00:08:44;112741.81;;;-145.50;79.72
50226;BME280;36113;50.742;6.432;2023-03-18T00:11:11;112741.81;;;-145.50;79.77
50226;BME280;36113;50.742;6.432;2023-03-18T00:13:37;112741.81;;;-145.50;79.74
50226;BME280;36113;50.742;6.432;2023-03-18T00:16:05;112741.81;;;-145.50;80.06
50226;BME280;36113;50.742;6.432;2023-03-18T00:18:31;112741.81;;;-145.50;80.27
50226;BME280;36113;50.742;6.432;2023-03-18T00:20:57;112741.81;;;-145.50;80.48
50226;BME280;36113;50.742;6.432;2023-03-18T00:23:24;112741.81;;;-145.50;80.64
50226;BME280;36113;50.742;6.432;2023-03-18T00:25:52;112741.81;;;-145.50;80.92
50226;BME280;36113;50.742;6.432;2023-03-18T00:28:18;112741.81;;;-145.50;81.29
50226;BME280;36113;50.742;6.432;2023-03-18T00:30:43;112741.81;;;-145.50;81.60
50226;BME280;36113;50.742;6.432;2023-03-18T00:33:09;112741.81;;;-145.50;81.71
50226;BME280;36113;50.742;6.432;2023-03-18T00:35:35;112741.81;;;-145.50;81.85
50226;BME280;36113;50.742;6.432;2023-03-18T00:38:01;112741.81;;;-145.50;82.43
50226;BME280;36113;50.742;6.432;2023-03-18T00:40:28;112741.81;;;-145.50;83.19
50226;BME280;36113;50.742;6.432;2023-03-18T00:43:08;112741.81;;;-145.50;84.30
50226;BME280;36113;50.742;6.432;2023-03-18T00:45:37;112741.81;;;-145.50;85.10
50226;BME280;36113;50.742;6.432;2023-03-18T00:48:03;112741.81;;;-145.50;85.88
50226;BME280;36113;50.742;6.432;2023-03-18T00:50:29;112741.81;;;-145.50;86.47
50226;BME280;36113;50.742;6.432;2023-03-18T00:52:54;112741.81;;;-145.50;86.88
50226;BME280;36113;50.742;6.432;2023-03-18T00:55:20;112741.81;;;-145.50;87.16
50226;BME280;36113;50.742;6.432;2023-03-18T00:57:46;112741.81;;;-145.50;87.42
50226;BME280;36113;50.742;6.432;2023-03-18T01:00:12;112741.81;;;-145.50;87.79
50226;BME280;36113;50.742;6.432;2023-03-18T01:02:41;112741.81;;;-145.50;88.04
50226;BME280;36113;50.742;6.432;2023-03-18T01:05:07;112741.81;;;-145.50;88.44
50226;BME280;36113;50.742;6.432;2023-03-18T01:07:33;112741.81;;;-145.50;88.82
50226;BME280;36113;50.742;6.432;2023-03-18T01:09:58;112741.81;;;-145.50;89.18
50226;BME280;36113;50.742;6.432;2023-03-18T01:12:24;112741.81;;;-145.50;89.34
50226;BME280;36113;50.742;6.432;2023-03-18T01:14:49;112741.81;;;-145.50;89.62
50226;BME280;36113;50.742;6.432;2023-03-18T01:17:15;112741.81;;;-145.50;90.30
50226;BME280;36113;50.742;6.432;2023-03-18T01:19:40;112741.81;;;-145.50;90.25
50226;BME280;36113;50.742;6.432;2023-03-18T01:22:06;112741.81;;;-145.50;90.26
50226;BME280;36113;50.742;6.432;2023-03-18T01:24:32;112741.81;;;-145.50;90.41
50226;BME280;36113;50.742;6.432;2023-03-18T01:26:58;112741.81;;;-145.50;90.64
50226;BME280;36113;50.742;6.432;2023-03-18T01:29:24;112741.81;;;-145.50;90.77
50226;BME280;36113;50.742;6.432;2023-03-18T01:31:49;112741.81;;;-145.50;90.96
50226;BME280;36113;50.742;6.432;2023-03-18T01:34:15;112741.81;;;-145.50;91.29
50226;BME280;36113;50.742;6.432;2023-03-18T01:36:41;112741.81;;;-145.50;91.48
50226;BME280;36113;50.742;6.432;2023-03-18T01:39:07;112741.81;;;-145.50;91.84
50226;BME280;36113;50.742;6.432;2023-03-18T01:41:34;112741.81;;;-145.50;92.04
50226;BME280;36113;50.742;6.432;2023-03-18T01:44:01;112741.81;;;-145.50;92.25
50226;BME280;36113;50.742;6.432;2023-03-18T01:46:41;112741.81;;;-145.50;92.33
50226;BME280;36113;50.742;6.432;2023-03-18T01:49:17;112741.81;;;-145.50;92.66
50226;BME280;36113;50.742;6.432;2023-03-18T01:51:48;112741.81;;;-145.50;93.05
50226;BME280;36113;50.742;6.432;2023-03-18T01:54:14;112741.81;;;-145.50;92.90
50226;BME280;36113;50.742;6.432;2023-03-18T01:56:42;112741.81;;;-145.50;93.12
50226;BME280;36113;50.742;6.432;2023-03-18T01:59:10;112741.81;;;-145.50;93.19
50226;BME280;36113;50.742;6.432;2023-03-18T02:04:09;112741.81;;;-145.50;93.62
50226;BME280;36113;50.742;6.432;2023-03-18T02:06:35;112741.81;;;-145.50;93.57
50226;BME280;36113;50.742;6.432;2023-03-18T02:09:02;112741.81;;;-145.50;93.71
50226;BME280;36113;50.742;6.432;2023-03-18T02:11:30;112741.81;;;-145.50;93.95
50226;BME280;36113;50.742;6.432;2023-03-18T02:13:58;112741.81;;;-145.50;94.07
50226;BME280;36113;50.742;6.432;2023-03-18T02:16:27;112741.81;;;-145.50;94.25
50226;BME280;36113;50.742;6.432;2023-03-18T02:18:59;112741.81;;;-145.50;94.44
50226;BME280;36113;50.742;6.432;2023-03-18T02:24:38;112741.81;;;-145.50;94.47
50226;BME280;36113;50.742;6.432;2023-03-18T02:27:16;112741.81;;;-145.50;94.51
50226;BME280;36113;50.742;6.432;2023-03-18T02:29:42;112741.81;;;-145.50;94.96
50226;BME280;36113;50.742;6.432;2023-03-18T02:32:08;112741.81;;;-145.50;95.06
50226;BME280;36113;50.742;6.432;2023-03-18T02:34:36;112741.81;;;-145.50;95.24
50226;BME280;36113;50.742;6.432;2023-03-18T02:37:02;112741.81;;;-145.50;95.38
50226;BME280;36113;50.742;6.432;2023-03-18T02:39:27;112741.81;;;-145.50;95.31
50226;BME280;36113;50.742;6.432;2023-03-18T02:41:55;112741.81;;;-145.50;95.47
50226;BME280;36113;50.742;6.432;2023-03-18T02:44:21;112741.81;;;-145.50;95.54
50226;BME280;36113;50.742;6.432;2023-03-18T02:47:03;112741.81;;;-145.50;95.59
50226;BME280;36113;50.742;6.432;2023-03-18T02:49:31;112741.81;;;-145.50;95.53
50226;BME280;36113;50.742;6.432;2023-03-18T02:51:57;112741.81;;;-145.50;95.56
50226;BME280;36113;50.742;6.432;2023-03-18T02:54:25;112741.81;;;-145.50;95.54
50226;BME280;36113;50.742;6.432;2023-03-18T02:56:51;112741.81;;;-145.50;95.55
50226;BME280;36113;50.742;6.432;2023-03-18T02:59:17;112741.81;;;-145.50;95.31
50226;BME280;36113;50.742;6.432;2023-03-18T03:01:45;112741.81;;;-145.50;95.20
50226;BME280;36113;50.742;6.432;2023-03-18T03:04:11;112741.81;;;-145.50;95.35
50226;BME280;36113;50.742;6.432;2023-03-18T03:06:38;112741.81;;;-145.50;95.17
50226;BME280;36113;50.742;6.432;2023-03-18T03:09:05;112741.81;;;-145.50;95.15
50226;BME280;36113;50.742;6.432;2023-03-18T03:11:31;112741.81;;;-145.50;95.15
50226;BME280;36113;50.742;6.432;2023-03-18T03:13:57;112741.81;;;-145.50;95.28
50226;BME280;36113;50.742;6.432;2023-03-18T03:16:22;112741.81;;;-145.50;95.08
50226;BME280;36113;50.742;6.432;2023-03-18T03:18:48;112741.81;;;-145.50;95.01
50226;BME280;36113;50.742;6.432;2023-03-18T03:21:14;112741.81;;;-145.50;94.91
50226;BME280;36113;50.742;6.432;2023-03-18T03:23:40;112741.81;;;-145.50;94.78
50226;BME280;36113;50.742;6.432;2023-03-18T03:26:06;112741.81;;;-145.50;94.81
50226;BME280;36113;50.742;6.432;2023-03-18T03:28:32;112741.81;;;-145.50;94.78
50226;BME280;36113;50.742;6.432;2023-03-18T03:30:58;112741.81;;;-145.50;94.63
50226;BME280;36113;50.742;6.432;2023-03-18T03:33:24;112741.81;;;-145.50;94.60
50226;BME280;36113;50.742;6.432;2023-03-18T03:35:50;112741.81;;;-145.50;94.47
50226;BME280;36113;50.742;6.432;2023-03-18T03:38:15;112741.81;;;-145.50;94.36
50226;BME280;36113;50.742;6.432;2023-03-18T03:40:41;112741.81;;;-145.50;94.20
50226;BME280;36113;50.742;6.432;2023-03-18T03:43:10;112741.81;;;-145.50;93.97
50226;BME280;36113;50.742;6.432;2023-03-18T03:45:36;112741.81;;;-145.50;93.97
50226;BME280;36113;50.742;6.432;2023-03-18T03:48:02;112741.81;;;-145.50;94.03
50226;BME280;36113;50.742;6.432;2023-03-18T03:50:28;112741.81;;;-145.50;94.06
50226;BME280;36113;50.742;6.432;2023-03-18T03:52:53;112741.81;;;-145.50;94.39
50226;BME280;36113;50.742;6.432;2023-03-18T03:55:20;112741.81;;;-145.50;94.34
50226;BME280;36113;50.742;6.432;2023-03-18T03:57:46;112741.81;;;-145.50;94.17
50226;BME280;36113;50.742;6.432;2023-03-18T04:00:15;112741.81;;;-145.50;93.91
50226;BME280;36113;50.742;6.432;2023-03-18T04:02:42;112741.81;;;-145.50;93.93
50226;BME280;36113;50.742;6.432;2023-03-18T04:05:09;112741.81;;;-145.50;93.81
50226;BME280;36113;50.742;6.432;2023-03-18T04:07:36;112741.81;;;-145.50;93.50
50226;BME280;36113;50.742;6.432;2023-03-18T04:10:01;112741.81;;;-145.50;93.28
50226;BME280;36113;50.742;6.432;2023-03-18T04:12:27;112741.81;;;-145.50;93.34
50226;BME280;36113;50.742;6.432;2023-03-18T04:14:52;112741.81;;;-145.50;93.20
50226;BME280;36113;50.742;6.432;2023-03-18T04:17:18;112741.81;;;-145.50;93.32
50226;BME280;36113;50.742;6.432;2023-03-18T04:19:43;112741.81;;;-145.50;93.06
50226;BME280;36113;50.742;6.432;2023-03-18T04:22:09;112741.81;;;-145.50;93.08
50226;BME280;36113;50.742;6.432;2023-03-18T04:24:35;112741.81;;;-145.50;93.05
50226;BME280;36113;50.742;6.432;2023-03-18T04:27:00;112741.81;;;-145.50;93.28
50226;BME280;36113;50.742;6.432;2023-03-18T04:29:25;112741.81;;;-145.50;93.25
50226;BME280;36113;50.742;6.432;2023-03-18T04:31:51;112741.81;;;-145.50;93.31
50226;BME280;36113;50.742;6.432;2023-03-18T04:34:16;112741.81;;;-145.50;93.10
50226;BME280;36113;50.742;6.432;2023-03-18T04:36:45;112741.81;;;-145.50;93.10
50226;BME280;36113;50.742;6.432;2023-03-18T04:39:10;112741.81;;;-145.50;93.10
50226;BME280;36113;50.742;6.432;2023-03-18T04:41:35;112741.81;;;-145.50;93.15
50226;BME280;36113;50.742;6.432;2023-03-18T04:44:03;112741.81;;;-145.50;93.44
50226;BME280;36113;50.742;6.432;2023-03-18T04:46:29;112741.81;;;-145.50;93.45
50226;BME280;36113;50.742;6.432;2023-03-18T04:48:55;112741.81;;;-145.50;93.54
50226;BME280;36113;50.742;6.432;2023-03-18T04:51:22;112741.81;;;-145.50;93.77
50226;BME280;36113;50.742;6.432;2023-03-18T04:53:48;112741.81;;;-145.50;93.55
50226;BME280;36113;50.742;6.432;2023-03-18T04:56:13;112741.81;;;-145.50;93.64
50226;BME280;36113;50.742;6.432;2023-03-18T04:58:38;112741.81;;;-145.50;93.71
50226;BME280;36113;50.742;6.432;2023-03-18T05:01:04;112741.81;;;-145.50;93.63
50226;BME280;36113;50.742;6.432;2023-03-18T05:03:29;112741.81;;;-145.50;93.69
50226;BME280;36113;50.742;6.432;2023-03-18T05:05:54;112741.81;;;-145.50;94.04
50226;BME280;36113;50.742;6.432;2023-03-18T05:08:21;112741.81;;;-145.50;94.12
50226;BME280;36113;50.742;6.432;2023-03-18T05:10:48;112741.81;;;-145.50;94.14
50226;BME280;36113;50.742;6.432;2023-03-18T05:13:14;112741.81;;;-145.50;94.01
50226;BME280;36113;50.742;6.432;2023-03-18T05:15:40;112741.81;;;-145.50;94.09
50226;BME280;36113;50.742;6.432;2023-03-18T05:18:06;112741.81;;;-145.50;94.02
50226;BME280;36113;50.742;6.432;2023-03-18T05:20:32;112741.81;;;-145.50;93.91
50226;BME280;36113;50.742;6.432;2023-03-18T05:22:58;112741.81;;;-145.50;94.03
50226;BME280;36113;50.742;6.432;2023-03-18T05:25:23;112741.81;;;-145.50;94.12
50226;BME280;36113;50.742;6.432;2023-03-18T05:27:48;112741.81;;;-145.50;94.30
50226;BME280;36113;50.742;6.432;2023-03-18T05:30:14;112741.81;;;-145.50;94.59
50226;BME280;36113;50.742;6.432;2023-03-18T05:32:40;112741.81;;;-145.50;94.50
50226;BME280;36113;50.742;6.432;2023-03-18T05:35:06;112741.81;;;-145.50;94.68
50226;BME280;36113;50.742;6.432;2023-03-18T05:37:33;112741.81;;;-145.50;94.75
50226;BME280;36113;50.742;6.432;2023-03-18T05:39:58;112741.81;;;-145.50;94.77
50226;BME280;36113;50.742;6.432;2023-03-18T05:42:24;112741.81;;;-145.50;94.94
50226;BME280;36113;50.742;6.432;2023-03-18T05:44:49;112741.81;;;-145.50;95.05
50226;BME280;36113;50.742;6.432;2023-03-18T05:47:14;112741.81;;;-145.50;95.12
50226;BME280;36113;50.742;6.432;2023-03-18T05:49:40;112741.81;;;-145.50;95.02
50226;BME280;36113;50.742;6.432;2023-03-18T05:52:06;112741.81;;;-145.50;94.83
50226;BME280;36113;50.742;6.432;2023-03-18T05:54:31;112741.81;;;-145.50;94.71
50226;BME280;36113;50.742;6.432;2023-03-18T05:56:57;112741.81;;;-145.50;94.82
50226;BME280;36113;50.742;6.432;2023-03-18T05:59:23;112741.81;;;-145.50;94.73
50226;BME280;36113;50.742;6.432;2023-03-18T06:01:49;112741.81;;;-145.50;94.83
50226;BME280;36113;50.742;6.432;2023-03-18T06:04:16;112741.81;;;-145.50;94.66
50226;BME280;36113;50.742;6.432;2023-03-18T06:06:43;112741.81;;;-145.50;94.45
50226;BME280;36113;50.742;6.432;2023-03-18T06:09:10;112741.81;;;-145.50;94.42
50226;BME280;36113;50.742;6.432;2023-03-18T06:11:37;112741.81;;;-145.50;94.28
50226;BME280;36113;50.742;6.432;2023-03-18T06:14:03;112741.81;;;-145.50;94.24
50226;BME280;36113;50.742;6.432;2023-03-18T06:16:30;112741.81;;;-145.50;94.19
50226;BME280;36113;50.742;6.432;2023-03-18T06:18:56;112741.81;;;-145.50;94.21
50226;BME280;36113;50.742;6.432;2023-03-18T06:21:22;112741.81;;;-145.50;94.20
50226;BME280;36113;50.742;6.432;2023-03-18T06:23:48;112741.81;;;-145.50;94.14
50226;BME280;36113;50.742;6.432;2023-03-18T06:26:14;112741.81;;;-145.50;93.84
50226;BME280;36113;50.742;6.432;2023-03-18T06:28:40;112741.81;;;-145.50;93.68
50226;BME280;36113;50.742;6.432;2023-03-18T06:31:05;112741.81;;;-145.50;93.49
50226;BME280;36113;50.742;6.432;2023-03-18T06:33:30;112741.81;;;-145.50;93.38
50226;BME280;36113;50.742;6.432;2023-03-18T06:35:56;112741.81;;;-145.50;93.12
50226;BME280;36113;50.742;6.432;2023-03-18T06:38:24;112741.81;;;-145.50;93.13
50226;BME280;36113;50.742;6.432;2023-03-18T06:40:49;112741.81;;;-145.50;93.05
50226;BME280;36113;50.742;6.432;2023-03-18T06:43:15;112741.81;;;-145.50;92.46
50226;BME280;36113;50.742;6.432;2023-03-18T06:45:40;112741.81;;;-145.50;92.17
50226;BME280;36113;50.742;6.432;2023-03-18T06:48:06;112741.81;;;-145.50;91.55
50226;BME280;36113;50.742;6.432;2023-03-18T06:50:33;112741.81;;;-145.50;91.19
50226;BME280;36113;50.742;6.432;2023-03-18T06:52:59;112741.81;;;-145.50;90.89
50226;BME280;36113;50.742;6.432;2023-03-18T06:55:25;112741.81;;;-145.50;90.23
50226;BME280;36113;50.742;6.432;2023-03-18T06:57:50;112741.81;;;-145.50;89.82
50226;BME280;36113;50.742;6.432;2023-03-18T07:00:17;112741.81;;;-145.50;89.46
50226;BME280;36113;50.742;6.432;2023-03-18T07:02:42;112741.81;;;-145.50;89.30
50226;BME280;36113;50.742;6.432;2023-03-18T07:05:08;112741.81;;;-145.50;88.90
50226;BME280;36113;50.742;6.432;2023-03-18T07:07:34;112741.81;;;-145.50;88.42
50226;BME280;36113;50.742;6.432;2023-03-18T07:10:03;112741.81;;;-145.50;87.84
50226;BME280;36113;50.742;6.432;2023-03-18T07:12:29;112741.81;;;-145.50;87.96
50226;BME280;36113;50.742;6.432;2023-03-18T07:14:55;112741.81;;;-145.50;88.02
50226;BME280;36113;50.742;6.432;2023-03-18T07:17:21;112741.81;;;-145.50;87.97
50226;BME280;36113;50.742;6.432;2023-03-18T07:19:47;112741.81;;;-145.50;87.48
50226;BME280;36113;50.742;6.432;2023-03-18T07:22:12;112741.81;;;-145.50;86.99
50226;BME280;36113;50.742;6.432;2023-03-18T07:24:39;112741.81;;;-145.50;86.69
50226;BME280;36113;50.742;6.432;2023-03-18T07:27:05;112741.81;;;-145.50;86.28
50226;BME280;36113;50.742;6.432;2023-03-18T07:29:30;112741.81;;;-145.50;85.77
50226;BME280;36113;50.742;6.432;2023-03-18T07:31:56;112741.81;;;-145.50;85.06
50226;BME280;36113;50.742;6.432;2023-03-18T07:34:21;112741.81;;;-145.50;85.13
50226;BME280;36113;50.742;6.432;2023-03-18T07:36:47;112741.81;;;-145.50;85.17
50226;BME280;36113;50.742;6.432;2023-03-18T07:39:12;112741.81;;;-145.50;85.30
50226;BME280;36113;50.742;6.432;2023-03-18T07:41:38;112741.81;;;-145.50;84.14
50226;BME280;36113;50.742;6.432;2023-03-18T07:44:04;112741.81;;;-145.50;84.32
50226;BME280;36113;50.742;6.432;2023-03-18T07:46:31;112741.81;;;-145.50;83.43
50226;BME280;36113;50.742;6.432;2023-03-18T07:48:57;112741.81;;;-145.50;83.55
50226;BME280;36113;50.742;6.432;2023-03-18T07:51:22;112741.81;;;-145.50;83.09
50226;BME280;36113;50.742;6.432;2023-03-18T07:53:47;112741.81;;;-145.50;81.94
50226;BME280;36113;50.742;6.432;2023-03-18T07:56:14;112741.81;;;-145.50;81.22
50226;BME280;36113;50.742;6.432;2023-03-18T07:58:40;112741.81;;;-145.50;81.30
50226;BME280;36113;50.742;6.432;2023-03-18T08:01:05;112741.81;;;-145.50;81.40
50226;BME280;36113;50.742;6.432;2023-03-18T08:03:31;112741.81;;;-145.50;81.64
50226;BME280;36113;50.742;6.432;2023-03-18T08:05:57;112741.81;;;-145.50;81.84
50226;BME280;36113;50.742;6.432;2023-03-18T08:08:23;112741.81;;;-145.50;81.46
50226;BME280;36113;50.742;6.432;2023-03-18T08:10:49;112741.81;;;-145.50;81.21
50226;BME280;36113;50.742;6.432;2023-03-18T08:13:15;112741.81;;;-145.50;80.66
50226;BME280;36113;50.742;6.432;2023-03-18T08:15:40;112741.81;;;-145.50;79.78
50226;BME280;36113;50.742;6.432;2023-03-18T08:18:05;112741.81;;;-145.50;79.16
50226;BME280;36113;50.742;6.432;2023-03-18T08:20:32;112741.81;;;-145.50;78.71
50226;BME280;36113;50.742;6.432;2023-03-18T08:22:57;112741.81;;;-145.50;77.70
50226;BME280;36113;50.742;6.432;2023-03-18T08:25:23;112741.81;;;-145.50;77.57
50226;BME280;36113;50.742;6.432;2023-03-18T08:27:51;112741.81;;;-145.50;77.64
50226;BME280;36113;50.742;6.432;2023-03-18T08:30:17;112741.81;;;-145.50;77.79
50226;BME280;36113;50.742;6.432;2023-03-18T08:32:43;112741.81;;;-145.50;77.85
50226;BME280;36113;50.742;6.432;2023-03-18T08:35:09;112741.81;;;-145.50;77.13
50226;BME280;36113;50.742;6.432;2023-03-18T08:37:35;112741.81;;;-145.50;76.27
50226;BME280;36113;50.742;6.432;2023-03-18T08:40:01;112741.81;;;-145.50;76.39
50226;BME280;36113;50.742;6.432;2023-03-18T08:42:26;112741.81;;;-145.50;76.37
50226;BME280;36113;50.742;6.432;2023-03-18T08:44:52;112741.81;;;-145.50;75.90
50226;BME280;36113;50.742;6.432;2023-03-18T08:47:17;112741.81;;;-145.50;75.87
50226;BME280;36113;50.742;6.432;2023-03-18T08:49:42;112741.81;;;-145.50;76.52
50226;BME280;36113;50.742;6.432;2023-03-18T08:52:08;112741.81;;;-145.50;75.16
50226;BME280;36113;50.742;6.432;2023-03-18T08:54:34;112741.81;;;-145.50;74.52
50226;BME280;36113;50.742;6.432;2023-03-18T08:56:59;112741.81;;;-145.50;74.89
50226;BME280;36113;50.742;6.432;2023-03-18T08:59:25;112741.81;;;-145.50;75.49
50226;BME280;36113;50.742;6.432;2023-03-18T09:01:50;112741.81;;;-145.50;75.37
50226;BME280;36113;50.742;6.432;2023-03-18T09:04:17;112741.81;;;-145.50;75.19
50226;BME280;36113;50.742;6.432;2023-03-18T09:06:44;112741.81;;;-145.50;73.39
50226;BME280;36113;50.742;6.432;2023-03-18T09:09:10;112741.81;;;-145.50;71.91
50226;BME280;36113;50.742;6.432;2023-03-18T09:11:36;112741.81;;;-145.50;71.96
50226;BME280;36113;50.742;6.432;2023-03-18T09:14:01;112741.81;;;-145.50;70.91
50226;BME280;36113;50.742;6.432;2023-03-18T09:16:27;112741.81;;;-145.50;70.09
50226;BME280;36113;50.742;6.432;2023-03-18T09:18:52;112741.81;;;-145.50;69.07
50226;BME280;36113;50.742;6.432;2023-03-18T09:21:18;112741.81;;;-145.50;67.71
50226;BME280;36113;50.742;6.432;2023-03-18T09:23:43;112741.81;;;-145.50;66.71
50226;BME280;36113;50.742;6.432;2023-03-18T09:26:10;112741.81;;;-145.50;67.15
50226;BME280;36113;50.742;6.432;2023-03-18T09:28:35;112741.81;;;-145.50;66.18
50226;BME280;36113;50.742;6.432;2023-03-18T09:31:01;112741.81;;;-145.50;66.18
50226;BME280;36113;50.742;6.432;2023-03-18T09:33:26;112741.81;;;-145.50;66.44
50226;BME280;36113;50.742;6.432;2023-03-18T09:35:52;112741.81;;;-145.50;65.56
50226;BME280;36113;50.742;6.432;2023-03-18T09:38:18;112741.81;;;-145.50;65.45
50226;BME280;36113;50.742;6.432;2023-03-18T09:46:10;112741.81;;;-145.50;64.60
50226;BME280;36113;50.742;6.432;2023-03-18T09:51:37;112741.81;;;-145.50;64.75
50226;BME280;36113;50.742;6.432;2023-03-18T09:57:26;112741.81;;;-145.50;63.23
50226;BME280;36113;50.742;6.432;2023-03-18T10:00:03;112741.81;;;-145.50;63.22
50226;BME280;36113;50.742;6.432;2023-03-18T10:02:44;112741.81;;;-145.50;63.76
50226;BME280;36113;50.742;6.432;2023-03-18T10:05:17;112741.81;;;-145.50;62.68
50226;BME280;36113;50.742;6.432;2023-03-18T10:07:51;112741.81;;;-145.50;62.00
50226;BME280;36113;50.742;6.432;2023-03-18T10:10:32;112741.81;;;-145.50;61.67
50226;BME280;36113;50.742;6.432;2023-03-18T10:13:10;112741.81;;;-145.50;62.11
50226;BME280;36113;50.742;6.432;2023-03-18T10:15:42;112741.81;;;-145.50;60.08
50226;BME280;36113;50.742;6.432;2023-03-18T10:18:35;112741.81;;;-145.50;59.02
50226;BME280;36113;50.742;6.432;2023-03-18T10:26:29;112741.81;;;-145.50;56.82
50226;BME280;36113;50.742;6.432;2023-03-18T10:29:25;112741.81;;;-145.50;55.79
50226;BME280;36113;50.742;6.432;2023-03-18T10:32:16;112741.81;;;-145.50;55.59
50226;BME280;36113;50.742;6.432;2023-03-18T10:37:34;112741.81;;;-145.50;53.99
50226;BME280;36113;50.742;6.432;2023-03-18T10:40:01;112741.81;;;-145.50;54.56
50226;BME280;36113;50.742;6.432;2023-03-18T10:42:29;112741.81;;;-145.50;56.21
50226;BME280;36113;50.742;6.432;2023-03-18T10:45:14;112741.81;;;-145.50;55.15
50226;BME280;36113;50.742;6.432;2023-03-18T10:47:48;112741.81;;;-145.50;54.72
50226;BME280;36113;50.742;6.432;2023-03-18T10:50:21;112741.81;;;-145.50;55.11
50226;BME280;36113;50.742;6.432;2023-03-18T10:52:53;112741.81;;;-145.50;54.92
50226;BME280;36113;50.742;6.432;2023-03-18T10:55:23;112741.81;;;-145.50;56.33
50226;BME280;36113;50.742;6.432;2023-03-18T10:57:49;112741.81;;;-145.50;57.03
50226;BME280;36113;50.742;6.432;2023-03-18T11:00:32;112741.81;;;-145.50;57.21
50226;BME280;36113;50.742;6.432;2023-03-18T11:02:58;112741.81;;;-145.50;56.89
50226;BME280;36113;50.742;6.432;2023-03-18T11:05:36;112741.81;;;-145.50;57.98
50226;BME280;36113;50.742;6.432;2023-03-18T11:08:07;112741.81;;;-145.50;57.88
50226;BME280;36113;50.742;6.432;2023-03-18T11:10:52;112741.81;;;-145.50;57.20
50226;BME280;36113;50.742;6.432;2023-03-18T11:13:19;112741.81;;;-145.50;57.54
50226;BME280;36113;50.742;6.432;2023-03-18T11:15:49;112741.81;;;-145.50;56.31
50226;BME280;36113;50.742;6.432;2023-03-18T11:18:18;112741.81;;;-145.50;56.95
50226;BME280;36113;50.742;6.432;2023-03-18T11:20:46;112741.81;;;-145.50;57.83
50226;BME280;36113;50.742;6.432;2023-03-18T11:23:34;112741.81;;;-145.50;57.21
50226;BME280;36113;50.742;6.432;2023-03-18T11:26:27;112741.81;;;-145.50;58.23
50226;BME280;36113;50.742;6.432;2023-03-18T11:28:59;112741.81;;;-145.50;58.08
50226;BME280;36113;50.742;6.432;2023-03-18T11:31:28;112741.81;;;-145.50;58.74
50226;BME280;36113;50.742;6.432;2023-03-18T11:33:57;112741.81;;;-145.50;59.51
50226;BME280;36113;50.742;6.432;2023-03-18T11:36:23;112741.81;;;-145.50;59.92
50226;BME280;36113;50.742;6.432;2023-03-18T11:38:56;112741.81;;;-145.50;60.53
50226;BME280;36113;50.742;6.432;2023-03-18T11:41:23;112741.81;;;-145.50;60.00
50226;BME280;36113;50.742;6.432;2023-03-18T11:44:16;112741.81;;;-145.50;57.49
50226;BME280;36113;50.742;6.432;2023-03-18T11:46:46;112741.81;;;-145.50;57.44
50226;BME280;36113;50.742;6.432;2023-03-18T11:49:20;112741.81;;;-145.50;58.75
50226;BME280;36113;50.742;6.432;2023-03-18T11:51:53;112741.81;;;-145.50;57.91
50226;BME280;36113;50.742;6.432;2023-03-18T11:54:32;112741.81;;;-145.50;56.98
50226;BME280;36113;50.742;6.432;2023-03-18T11:57:10;112741.81;;;-145.50;57.50
50226;BME280;36113;50.742;6.432;2023-03-18T12:02:34;112741.81;;;-145.50;57.05
50226;BME280;36113;50.742;6.432;2023-03-18T12:18:58;112741.81;;;-145.50;57.23
50226;BME280;36113;50.742;6.432;2023-03-18T12:21:29;112741.81;;;-145.50;56.64
50226;BME280;36113;50.742;6.432;2023-03-18T12:26:51;112741.81;;;-145.50;57.64
50226;BME280;36113;50.742;6.432;2023-03-18T12:37:56;112741.81;;;-145.50;59.72
50226;BME280;36113;50.742;6.432;2023-03-18T12:40:39;112741.81;;;-145.50;59.77
50226;BME280;36113;50.742;6.432;2023-03-18T12:46:03;112741.81;;;-145.50;60.39
50226;BME280;36113;50.742;6.432;2023-03-18T12:48:38;112741.81;;;-145.50;60.97
50226;BME280;36113;50.742;6.432;2023-03-18T12:51:18;112741.81;;;-145.50;59.92
50226;BME280;36113;50.742;6.432;2023-03-18T12:53:49;112741.81;;;-145.50;61.46
50226;BME280;36113;50.742;6.432;2023-03-18T12:56:19;112741.81;;;-145.50;61.79
50226;BME280;36113;50.742;6.432;2023-03-18T12:59:07;112741.81;;;-145.50;60.95
50226;BME280;36113;50.742;6.432;2023-03-18T13:01:48;112741.81;;;-145.50;61.49
50226;BME280;36113;50.742;6.432;2023-03-18T13:04:20;112741.81;;;-145.50;61.31
50226;BME280;36113;50.742;6.432;2023-03-18T13:07:11;112741.81;;;-145.50;60.94
50226;BME280;36113;50.742;6.432;2023-03-18T13:09:48;112741.81;;;-145.50;61.06
50226;BME280;36113;50.742;6.432;2023-03-18T13:12:23;112741.81;;;-145.50;61.69
50226;BME280;36113;50.742;6.432;2023-03-18T13:14:56;112741.81;;;-145.50;60.67
50226;BME280;36113;50.742;6.432;2023-03-18T13:17:42;112741.81;;;-145.50;60.00
50226;BME280;36113;50.742;6.432;2023-03-18T13:20:26;112741.81;;;-145.50;59.07
50226;BME280;36113;50.742;6.432;2023-03-18T13:23:15;112741.81;;;-145.50;58.53
50226;BME280;36113;50.742;6.432;2023-03-18T13:26:15;112741.81;;;-145.50;58.95
50226;BME280;36113;50.742;6.432;2023-03-18T13:28:53;112741.81;;;-145.50;59.71
50226;BME280;36113;50.742;6.432;2023-03-18T13:31:36;112741.81;;;-145.50;59.64
50226;BME280;36113;50.742;6.432;2023-03-18T13:37:29;112741.81;;;-145.50;59.64